Terminal Aerodrome Forecast
Issued by NWS Cleveland, OH

Home | Current Version | Previous Version | Graphics & Text | Print | Product List | Glossary On
Versions: 1 2 3 4 5 6 7 8 9 10 11 12 13 14 15 16 17 18 19 20 21 22 23 24 25 26 27
139
FTUS41 KCLE 262022 AAA
TAFCLE
TAF AMD
KCLE 262022Z 2620/2724 22012G20KT P6SM SKC
     FM270200 20012KT P6SM SCT080 WS020/25040KT
     FM271200 20008KT P6SM OVC040=

USA.gov is the U.S. government's official web portal to all federal, state and local government web resources and services.